sensor_id;sensor_type;location;lat;lon;timestamp;temperature;humidity
1453;DHT22;720;47.738;7.998;2023-11-21T00:00:20;10.70;96.90
1453;DHT22;720;47.738;7.998;2023-11-21T00:02:46;10.60;96.70
1453;DHT22;720;47.738;7.998;2023-11-21T00:05:13;10.30;97.10
1453;DHT22;720;47.738;7.998;2023-11-21T00:07:42;9.60;98.90
1453;DHT22;720;47.738;7.998;2023-11-21T00:10:08;9.90;98.60
1453;DHT22;720;47.738;7.998;2023-11-21T00:12:36;10.00;97.70
1453;DHT22;720;47.738;7.998;2023-11-21T00:15:02;9.90;98.00
1453;DHT22;720;47.738;7.998;2023-11-21T00:17:28;10.00;97.60
1453;DHT22;720;47.738;7.998;2023-11-21T00:19:54;10.10;97.80
1453;DHT22;720;47.738;7.998;2023-11-21T00:22:20;10.30;97.10
1453;DHT22;720;47.738;7.998;2023-11-21T00:24:46;10.40;97.00
1453;DHT22;720;47.738;7.998;2023-11-21T00:27:12;10.30;97.30
1453;DHT22;720;47.738;7.998;2023-11-21T00:29:38;10.30;97.30
1453;DHT22;720;47.738;7.998;2023-11-21T00:32:05;10.40;96.90
1453;DHT22;720;47.738;7.998;2023-11-21T00:34:31;10.40;97.00
1453;DHT22;720;47.738;7.998;2023-11-21T00:36:58;10.00;97.30
1453;DHT22;720;47.738;7.998;2023-11-21T00:39:24;9.90;98.20
1453;DHT22;720;47.738;7.998;2023-11-21T00:41:51;10.00;97.80
1453;DHT22;720;47.738;7.998;2023-11-21T00:44:17;9.90;98.50
1453;DHT22;720;47.738;7.998;2023-11-21T00:46:42;9.90;98.80
1453;DHT22;720;47.738;7.998;2023-11-21T00:49:08;10.20;97.90
1453;DHT22;720;47.738;7.998;2023-11-21T00:51:34;10.10;97.80
1453;DHT22;720;47.738;7.998;2023-11-21T00:54:00;10.00;97.70
1453;DHT22;720;47.738;7.998;2023-11-21T00:56:27;10.20;97.80
1453;DHT22;720;47.738;7.998;2023-11-21T00:58:53;10.40;97.40
1453;DHT22;720;47.738;7.998;2023-11-21T01:01:20;10.40;97.40
1453;DHT22;720;47.738;7.998;2023-11-21T01:03:48;10.30;97.10
1453;DHT22;720;47.738;7.998;2023-11-21T01:06:15;10.40;97.00
1453;DHT22;720;47.738;7.998;2023-11-21T01:08:40;10.40;97.00
1453;DHT22;720;47.738;7.998;2023-11-21T01:11:07;10.70;96.30
1453;DHT22;720;47.738;7.998;2023-11-21T01:13:34;10.70;96.40
1453;DHT22;720;47.738;7.998;2023-11-21T01:16:00;10.80;96.30
1453;DHT22;720;47.738;7.998;2023-11-21T01:18:26;10.80;95.50
1453;DHT22;720;47.738;7.998;2023-11-21T01:20:52;10.50;95.30
1453;DHT22;720;47.738;7.998;2023-11-21T01:23:19;10.50;95.50
1453;DHT22;720;47.738;7.998;2023-11-21T01:25:45;10.40;96.00
1453;DHT22;720;47.738;7.998;2023-11-21T01:28:10;10.20;96.10
1453;DHT22;720;47.738;7.998;2023-11-21T01:30:36;10.30;96.40
1453;DHT22;720;47.738;7.998;2023-11-21T01:33:02;10.40;96.50
1453;DHT22;720;47.738;7.998;2023-11-21T01:35:29;10.50;96.50
1453;DHT22;720;47.738;7.998;2023-11-21T01:37:55;10.70;95.70
1453;DHT22;720;47.738;7.998;2023-11-21T01:40:21;10.70;96.10
1453;DHT22;720;47.738;7.998;2023-11-21T01:42:47;10.80;95.50
1453;DHT22;720;47.738;7.998;2023-11-21T01:45:13;10.50;95.80
1453;DHT22;720;47.738;7.998;2023-11-21T01:47:41;10.10;96.30
1453;DHT22;720;47.738;7.998;2023-11-21T01:50:14;10.30;96.50
1453;DHT22;720;47.738;7.998;2023-11-21T01:52:41;10.20;96.60
1453;DHT22;720;47.738;7.998;2023-11-21T01:55:09;10.20;96.80
1453;DHT22;720;47.738;7.998;2023-11-21T01:57:36;10.10;96.60
1453;DHT22;720;47.738;7.998;2023-11-21T02:00:04;10.10;96.80
1453;DHT22;720;47.738;7.998;2023-11-21T02:02:47;10.30;96.80
1453;DHT22;720;47.738;7.998;2023-11-21T02:05:17;10.50;96.00
1453;DHT22;720;47.738;7.998;2023-11-21T02:07:47;10.50;96.10
1453;DHT22;720;47.738;7.998;2023-11-21T02:10:15;10.60;96.10
1453;DHT22;720;47.738;7.998;2023-11-21T02:12:45;10.50;96.10
1453;DHT22;720;47.738;7.998;2023-11-21T02:15:13;10.60;96.10
1453;DHT22;720;47.738;7.998;2023-11-21T02:17:58;10.50;96.40
1453;DHT22;720;47.738;7.998;2023-11-21T02:20:24;10.60;95.70
1453;DHT22;720;47.738;7.998;2023-11-21T02:22:52;10.60;96.20
1453;DHT22;720;47.738;7.998;2023-11-21T02:25:26;10.50;96.40
1453;DHT22;720;47.738;7.998;2023-11-21T02:27:56;10.60;96.20
1453;DHT22;720;47.738;7.998;2023-11-21T02:30:22;10.50;96.20
1453;DHT22;720;47.738;7.998;2023-11-21T02:32:51;10.30;96.60
1453;DHT22;720;47.738;7.998;2023-11-21T02:35:22;10.20;96.90
1453;DHT22;720;47.738;7.998;2023-11-21T02:37:49;10.10;97.10
1453;DHT22;720;47.738;7.998;2023-11-21T02:40:15;9.80;98.10
1453;DHT22;720;47.738;7.998;2023-11-21T02:42:46;9.90;98.40
1453;DHT22;720;47.738;7.998;2023-11-21T02:45:13;10.10;97.90
1453;DHT22;720;47.738;7.998;2023-11-21T02:47:39;10.00;97.60
1453;DHT22;720;47.738;7.998;2023-11-21T02:50:06;10.30;97.20
1453;DHT22;720;47.738;7.998;2023-11-21T02:52:34;10.50;96.60
1453;DHT22;720;47.738;7.998;2023-11-21T02:55:03;10.60;96.70
1453;DHT22;720;47.738;7.998;2023-11-21T02:57:29;10.70;96.50
1453;DHT22;720;47.738;7.998;2023-11-21T02:59:55;10.60;96.50
1453;DHT22;720;47.738;7.998;2023-11-21T03:02:21;10.70;96.90
1453;DHT22;720;47.738;7.998;2023-11-21T03:04:47;10.60;96.70
1453;DHT22;720;47.738;7.998;2023-11-21T03:07:14;10.40;96.80
1453;DHT22;720;47.738;7.998;2023-11-21T03:09:40;10.40;97.10
1453;DHT22;720;47.738;7.998;2023-11-21T03:12:06;10.40;97.10
1453;DHT22;720;47.738;7.998;2023-11-21T03:14:31;10.20;96.90
1453;DHT22;720;47.738;7.998;2023-11-21T03:16:57;10.10;97.20
1453;DHT22;720;47.738;7.998;2023-11-21T03:19:23;10.10;97.50
1453;DHT22;720;47.738;7.998;2023-11-21T03:21:49;10.10;97.60
1453;DHT22;720;47.738;7.998;2023-11-21T03:24:15;10.30;97.80
1453;DHT22;720;47.738;7.998;2023-11-21T03:26:44;10.40;97.70
1453;DHT22;720;47.738;7.998;2023-11-21T03:29:10;10.40;97.20
1453;DHT22;720;47.738;7.998;2023-11-21T03:31:36;10.40;97.10
1453;DHT22;720;47.738;7.998;2023-11-21T03:34:01;10.10;97.30
1453;DHT22;720;47.738;7.998;2023-11-21T03:36:27;10.10;97.70
1453;DHT22;720;47.738;7.998;2023-11-21T03:38:52;10.10;97.70
1453;DHT22;720;47.738;7.998;2023-11-21T03:41:19;10.10;97.70
1453;DHT22;720;47.738;7.998;2023-11-21T03:43:44;9.90;98.30
1453;DHT22;720;47.738;7.998;2023-11-21T03:46:10;9.90;98.60
1453;DHT22;720;47.738;7.998;2023-11-21T03:48:35;9.90;98.90
1453;DHT22;720;47.738;7.998;2023-11-21T03:51:01;10.00;98.20
1453;DHT22;720;47.738;7.998;2023-11-21T03:53:27;9.80;98.70
1453;DHT22;720;47.738;7.998;2023-11-21T03:55:52;9.70;99.10
1453;DHT22;720;47.738;7.998;2023-11-21T03:58:18;9.70;99.20
1453;DHT22;720;47.738;7.998;2023-11-21T04:00:43;10.00;98.70
1453;DHT22;720;47.738;7.998;2023-11-21T04:03:09;9.90;98.80
1453;DHT22;720;47.738;7.998;2023-11-21T04:05:35;9.90;98.90
1453;DHT22;720;47.738;7.998;2023-11-21T04:08:00;10.00;98.20
1453;DHT22;720;47.738;7.998;2023-11-21T04:10:26;10.20;98.20
1453;DHT22;720;47.738;7.998;2023-11-21T04:12:52;10.40;97.80
1453;DHT22;720;47.738;7.998;2023-11-21T04:15:18;10.50;97.40
1453;DHT22;720;47.738;7.998;2023-11-21T04:17:43;10.50;97.50
1453;DHT22;720;47.738;7.998;2023-11-21T04:20:11;10.60;97.30
1453;DHT22;720;47.738;7.998;2023-11-21T04:22:40;10.80;96.70
1453;DHT22;720;47.738;7.998;2023-11-21T04:25:08;11.00;96.50
1453;DHT22;720;47.738;7.998;2023-11-21T04:27:35;11.10;96.60
1453;DHT22;720;47.738;7.998;2023-11-21T04:30:00;11.00;96.50
1453;DHT22;720;47.738;7.998;2023-11-21T04:32:26;11.00;96.60
1453;DHT22;720;47.738;7.998;2023-11-21T04:34:51;11.10;96.50
1453;DHT22;720;47.738;7.998;2023-11-21T04:37:17;11.20;96.30
1453;DHT22;720;47.738;7.998;2023-11-21T04:39:43;11.10;96.30
1453;DHT22;720;47.738;7.998;2023-11-21T04:42:09;11.20;96.40
1453;DHT22;720;47.738;7.998;2023-11-21T04:44:35;11.30;95.90
1453;DHT22;720;47.738;7.998;2023-11-21T04:47:01;11.30;96.10
1453;DHT22;720;47.738;7.998;2023-11-21T04:49:27;11.20;96.30
1453;DHT22;720;47.738;7.998;2023-11-21T04:51:52;11.10;95.90
1453;DHT22;720;47.738;7.998;2023-11-21T04:54:18;11.10;95.80
1453;DHT22;720;47.738;7.998;2023-11-21T04:56:44;11.00;95.80
1453;DHT22;720;47.738;7.998;2023-11-21T04:59:09;10.90;96.20
1453;DHT22;720;47.738;7.998;2023-11-21T05:01:35;10.80;96.50
1453;DHT22;720;47.738;7.998;2023-11-21T05:04:02;10.80;96.40
1453;DHT22;720;47.738;7.998;2023-11-21T05:06:27;10.80;96.40
1453;DHT22;720;47.738;7.998;2023-11-21T05:08:53;10.90;96.30
1453;DHT22;720;47.738;7.998;2023-11-21T05:11:28;10.80;96.40
1453;DHT22;720;47.738;7.998;2023-11-21T05:13:57;10.90;96.40
1453;DHT22;720;47.738;7.998;2023-11-21T05:16:26;11.00;96.20
1453;DHT22;720;47.738;7.998;2023-11-21T05:18:53;11.00;95.80
1453;DHT22;720;47.738;7.998;2023-11-21T05:21:18;10.80;96.20
1453;DHT22;720;47.738;7.998;2023-11-21T05:23:46;10.90;96.20
1453;DHT22;720;47.738;7.998;2023-11-21T05:26:13;10.90;96.30
1453;DHT22;720;47.738;7.998;2023-11-21T05:28:40;10.90;96.60
1453;DHT22;720;47.738;7.998;2023-11-21T05:31:05;11.00;96.40
1453;DHT22;720;47.738;7.998;2023-11-21T05:33:32;10.90;96.30
1453;DHT22;720;47.738;7.998;2023-11-21T05:35:58;10.80;96.60
1453;DHT22;720;47.738;7.998;2023-11-21T05:38:24;10.90;96.40
1453;DHT22;720;47.738;7.998;2023-11-21T05:40:49;10.80;96.60
1453;DHT22;720;47.738;7.998;2023-11-21T05:43:15;10.80;96.80
1453;DHT22;720;47.738;7.998;2023-11-21T05:45:41;10.80;96.70
1453;DHT22;720;47.738;7.998;2023-11-21T05:48:06;10.60;96.80
1453;DHT22;720;47.738;7.998;2023-11-21T05:50:32;10.60;97.20
1453;DHT22;720;47.738;7.998;2023-11-21T05:52:58;10.60;97.30
1453;DHT22;720;47.738;7.998;2023-11-21T05:55:26;10.80;96.90
1453;DHT22;720;47.738;7.998;2023-11-21T05:57:52;10.90;97.00
1453;DHT22;720;47.738;7.998;2023-11-21T06:00:18;10.90;96.90
1453;DHT22;720;47.738;7.998;2023-11-21T06:02:52;10.90;97.00
1453;DHT22;720;47.738;7.998;2023-11-21T06:05:19;10.90;96.70
1453;DHT22;720;47.738;7.998;2023-11-21T06:07:45;11.00;96.30
1453;DHT22;720;47.738;7.998;2023-11-21T06:10:12;11.00;96.30
1453;DHT22;720;47.738;7.998;2023-11-21T06:12:41;11.00;96.10
1453;DHT22;720;47.738;7.998;2023-11-21T06:15:09;11.00;96.40
1453;DHT22;720;47.738;7.998;2023-11-21T06:17:37;10.90;96.30
1453;DHT22;720;47.738;7.998;2023-11-21T06:20:08;11.00;96.30
1453;DHT22;720;47.738;7.998;2023-11-21T06:22:38;11.00;96.20
1453;DHT22;720;47.738;7.998;2023-11-21T06:25:05;11.20;96.50
1453;DHT22;720;47.738;7.998;2023-11-21T06:27:51;11.30;96.00
1453;DHT22;720;47.738;7.998;2023-11-21T06:30:18;11.40;95.90
1453;DHT22;720;47.738;7.998;2023-11-21T06:32:45;11.30;95.80
1453;DHT22;720;47.738;7.998;2023-11-21T06:35:11;11.20;96.20
1453;DHT22;720;47.738;7.998;2023-11-21T06:37:39;11.00;96.30
1453;DHT22;720;47.738;7.998;2023-11-21T06:40:05;10.90;96.60
1453;DHT22;720;47.738;7.998;2023-11-21T06:42:31;10.80;96.70
1453;DHT22;720;47.738;7.998;2023-11-21T06:44:58;10.10;99.90
1453;DHT22;720;47.738;7.998;2023-11-21T06:47:24;9.40;99.90
1453;DHT22;720;47.738;7.998;2023-11-21T06:49:52;9.00;99.90
1453;DHT22;720;47.738;7.998;2023-11-21T06:52:18;8.80;99.90
1453;DHT22;720;47.738;7.998;2023-11-21T06:54:44;8.70;99.90
1453;DHT22;720;47.738;7.998;2023-11-21T06:57:11;8.50;99.90
1453;DHT22;720;47.738;7.998;2023-11-21T06:59:36;8.30;99.90
1453;DHT22;720;47.738;7.998;2023-11-21T07:02:02;8.20;99.90
1453;DHT22;720;47.738;7.998;2023-11-21T07:04:28;8.20;99.90
1453;DHT22;720;47.738;7.998;2023-11-21T07:06:54;8.20;99.90
1453;DHT22;720;47.738;7.998;2023-11-21T07:09:20;8.20;99.90
1453;DHT22;720;47.738;7.998;2023-11-21T07:11:49;8.30;99.90
1453;DHT22;720;47.738;7.998;2023-11-21T07:14:15;8.30;99.90
1453;DHT22;720;47.738;7.998;2023-11-21T07:16:42;8.30;99.90
1453;DHT22;720;47.738;7.998;2023-11-21T07:19:08;8.30;99.90
1453;DHT22;720;47.738;7.998;2023-11-21T07:21:36;8.20;99.90
1453;DHT22;720;47.738;7.998;2023-11-21T07:24:02;8.20;99.90
1453;DHT22;720;47.738;7.998;2023-11-21T07:26:28;8.20;99.90
1453;DHT22;720;47.738;7.998;2023-11-21T07:28:54;8.20;99.90
1453;DHT22;720;47.738;7.998;2023-11-21T07:31:22;8.10;99.90
1453;DHT22;720;47.738;7.998;2023-11-21T07:33:48;8.00;99.90
1453;DHT22;720;47.738;7.998;2023-11-21T07:36:14;8.20;99.90
1453;DHT22;720;47.738;7.998;2023-11-21T07:38:43;8.00;99.90
1453;DHT22;720;47.738;7.998;2023-11-21T07:41:09;8.00;99.90
1453;DHT22;720;47.738;7.998;2023-11-21T07:43:36;8.00;99.90
1453;DHT22;720;47.738;7.998;2023-11-21T07:46:04;8.10;99.90
1453;DHT22;720;47.738;7.998;2023-11-21T07:48:31;8.20;99.90
1453;DHT22;720;47.738;7.998;2023-11-21T07:50:57;8.40;99.90
1453;DHT22;720;47.738;7.998;2023-11-21T07:53:26;8.50;99.90
1453;DHT22;720;47.738;7.998;2023-11-21T07:55:54;8.50;99.90
1453;DHT22;720;47.738;7.998;2023-11-21T07:58:20;8.70;99.90
1453;DHT22;720;47.738;7.998;2023-11-21T08:00:46;8.80;99.90
1453;DHT22;720;47.738;7.998;2023-11-21T08:03:13;8.90;99.90
1453;DHT22;720;47.738;7.998;2023-11-21T08:05:39;9.20;99.90
1453;DHT22;720;47.738;7.998;2023-11-21T08:08:04;9.40;99.90
1453;DHT22;720;47.738;7.998;2023-11-21T08:10:30;9.50;99.90
1453;DHT22;720;47.738;7.998;2023-11-21T08:12:56;9.70;99.90
1453;DHT22;720;47.738;7.998;2023-11-21T08:15:22;9.60;99.90
1453;DHT22;720;47.738;7.998;2023-11-21T08:17:49;9.70;99.90
1453;DHT22;720;47.738;7.998;2023-11-21T08:20:15;9.90;99.90
1453;DHT22;720;47.738;7.998;2023-11-21T08:22:42;10.40;99.90
1453;DHT22;720;47.738;7.998;2023-11-21T08:25:08;11.60;99.90
1453;DHT22;720;47.738;7.998;2023-11-21T08:27:34;12.00;99.70
1453;DHT22;720;47.738;7.998;2023-11-21T08:30:02;11.90;97.90
1453;DHT22;720;47.738;7.998;2023-11-21T08:32:28;11.70;98.90
1453;DHT22;720;47.738;7.998;2023-11-21T08:34:55;11.40;99.00
1453;DHT22;720;47.738;7.998;2023-11-21T08:37:21;11.10;99.20
1453;DHT22;720;47.738;7.998;2023-11-21T08:39:47;10.90;99.90
1453;DHT22;720;47.738;7.998;2023-11-21T08:42:14;10.60;99.90
1453;DHT22;720;47.738;7.998;2023-11-21T08:44:40;10.40;99.90
1453;DHT22;720;47.738;7.998;2023-11-21T08:47:06;10.30;99.90
1453;DHT22;720;47.738;7.998;2023-11-21T08:49:31;10.20;99.90
1453;DHT22;720;47.738;7.998;2023-11-21T08:51:59;10.10;99.90
1453;DHT22;720;47.738;7.998;2023-11-21T08:54:25;10.00;99.90
1453;DHT22;720;47.738;7.998;2023-11-21T08:56:54;9.70;99.90
1453;DHT22;720;47.738;7.998;2023-11-21T08:59:20;9.60;99.90
1453;DHT22;720;47.738;7.998;2023-11-21T09:01:47;9.40;99.90
1453;DHT22;720;47.738;7.998;2023-11-21T09:04:12;9.40;99.90
1453;DHT22;720;47.738;7.998;2023-11-21T09:06:42;9.40;99.90
1453;DHT22;720;47.738;7.998;2023-11-21T09:09:07;9.40;99.90
1453;DHT22;720;47.738;7.998;2023-11-21T09:11:35;9.40;99.90
1453;DHT22;720;47.738;7.998;2023-11-21T09:14:01;9.60;99.90
1453;DHT22;720;47.738;7.998;2023-11-21T09:16:27;9.70;99.90
1453;DHT22;720;47.738;7.998;2023-11-21T09:18:53;9.80;99.90
1453;DHT22;720;47.738;7.998;2023-11-21T09:21:18;9.90;99.90
1453;DHT22;720;47.738;7.998;2023-11-21T09:23:44;9.90;99.90
1453;DHT22;720;47.738;7.998;2023-11-21T09:26:10;9.90;99.90
1453;DHT22;720;47.738;7.998;2023-11-21T09:28:36;10.00;99.90
1453;DHT22;720;47.738;7.998;2023-11-21T09:31:06;10.10;99.90
1453;DHT22;720;47.738;7.998;2023-11-21T09:33:35;10.10;99.90
1453;DHT22;720;47.738;7.998;2023-11-21T09:36:01;10.30;99.90
1453;DHT22;720;47.738;7.998;2023-11-21T09:38:30;10.40;99.90
1453;DHT22;720;47.738;7.998;2023-11-21T09:40:56;10.40;99.90
1453;DHT22;720;47.738;7.998;2023-11-21T09:43:25;10.40;99.90
1453;DHT22;720;47.738;7.998;2023-11-21T09:46:00;10.50;99.90
1453;DHT22;720;47.738;7.998;2023-11-21T09:48:27;10.50;99.90
1453;DHT22;720;47.738;7.998;2023-11-21T09:50:54;10.50;99.90
1453;DHT22;720;47.738;7.998;2023-11-21T09:53:22;10.40;99.90
1453;DHT22;720;47.738;7.998;2023-11-21T09:55:51;10.40;99.90
1453;DHT22;720;47.738;7.998;2023-11-21T09:58:18;10.40;99.90
1453;DHT22;720;47.738;7.998;2023-11-21T10:00:46;10.40;99.90
1453;DHT22;720;47.738;7.998;2023-11-21T10:03:13;10.50;99.90
1453;DHT22;720;47.738;7.998;2023-11-21T10:05:40;10.60;99.90
1453;DHT22;720;47.738;7.998;2023-11-21T10:08:11;10.60;99.90
1453;DHT22;720;47.738;7.998;2023-11-21T10:10:37;10.60;99.90
1453;DHT22;720;47.738;7.998;2023-11-21T10:13:05;10.70;99.90
1453;DHT22;720;47.738;7.998;2023-11-21T10:15:33;10.80;99.90
1453;DHT22;720;47.738;7.998;2023-11-21T10:18:05;10.60;99.90
1453;DHT22;720;47.738;7.998;2023-11-21T10:20:33;10.40;99.90
1453;DHT22;720;47.738;7.998;2023-11-21T10:23:00;10.10;99.90
1453;DHT22;720;47.738;7.998;2023-11-21T10:25:29;10.00;99.90
1453;DHT22;720;47.738;7.998;2023-11-21T10:27:59;10.00;99.90
1453;DHT22;720;47.738;7.998;2023-11-21T10:30:33;10.00;99.90
1453;DHT22;720;47.738;7.998;2023-11-21T10:33:02;9.90;99.90
1453;DHT22;720;47.738;7.998;2023-11-21T10:35:47;9.90;99.90
1453;DHT22;720;47.738;7.998;2023-11-21T10:38:17;10.00;99.90
1453;DHT22;720;47.738;7.998;2023-11-21T10:40:44;10.10;99.90
1453;DHT22;720;47.738;7.998;2023-11-21T10:43:17;10.10;99.90
1453;DHT22;720;47.738;7.998;2023-11-21T10:45:43;10.20;99.90
1453;DHT22;720;47.738;7.998;2023-11-21T10:48:12;10.10;99.90
1453;DHT22;720;47.738;7.998;2023-11-21T10:50:40;10.00;99.90
1453;DHT22;720;47.738;7.998;2023-11-21T10:53:07;10.00;99.90
1453;DHT22;720;47.738;7.998;2023-11-21T10:55:33;9.90;99.90
1453;DHT22;720;47.738;7.998;2023-11-21T10:58:02;9.80;99.90
1453;DHT22;720;47.738;7.998;2023-11-21T11:00:29;9.80;99.90
1453;DHT22;720;47.738;7.998;2023-11-21T11:02:55;9.90;99.90
1453;DHT22;720;47.738;7.998;2023-11-21T11:05:25;9.80;99.90
1453;DHT22;720;47.738;7.998;2023-11-21T11:08:05;9.80;99.90
1453;DHT22;720;47.738;7.998;2023-11-21T11:10:31;10.00;99.90
1453;DHT22;720;47.738;7.998;2023-11-21T11:12:58;10.00;99.90
1453;DHT22;720;47.738;7.998;2023-11-21T11:15:25;10.10;99.90
1453;DHT22;720;47.738;7.998;2023-11-21T11:17:52;10.10;99.90
1453;DHT22;720;47.738;7.998;2023-11-21T11:20:27;10.10;99.90
1453;DHT22;720;47.738;7.998;2023-11-21T11:25:53;10.00;99.90
1453;DHT22;720;47.738;7.998;2023-11-21T11:28:43;10.10;99.90
1453;DHT22;720;47.738;7.998;2023-11-21T11:37:05;10.10;99.90
1453;DHT22;720;47.738;7.998;2023-11-21T11:39:43;10.10;99.90
1453;DHT22;720;47.738;7.998;2023-11-21T11:42:13;10.20;99.90
1453;DHT22;720;47.738;7.998;2023-11-21T11:50:00;10.20;99.90
1453;DHT22;720;47.738;7.998;2023-11-21T11:55:03;10.50;99.90
1453;DHT22;720;47.738;7.998;2023-11-21T11:57:30;10.50;99.90
1453;DHT22;720;47.738;7.998;2023-11-21T12:00:15;10.50;99.90
1453;DHT22;720;47.738;7.998;2023-11-21T12:03:08;10.60;99.90
1453;DHT22;720;47.738;7.998;2023-11-21T12:05:35;10.50;99.90
1453;DHT22;720;47.738;7.998;2023-11-21T12:08:05;10.70;99.90
1453;DHT22;720;47.738;7.998;2023-11-21T12:10:33;10.80;99.90
1453;DHT22;720;47.738;7.998;2023-11-21T12:13:05;10.90;99.90
1453;DHT22;720;47.738;7.998;2023-11-21T12:15:36;10.90;99.90
1453;DHT22;720;47.738;7.998;2023-11-21T12:18:02;11.00;99.90
1453;DHT22;720;47.738;7.998;2023-11-21T12:20:30;10.90;99.90
1453;DHT22;720;47.738;7.998;2023-11-21T12:23:00;10.90;99.90
1453;DHT22;720;47.738;7.998;2023-11-21T12:25:30;10.90;99.90
1453;DHT22;720;47.738;7.998;2023-11-21T12:27:58;10.70;99.90
1453;DHT22;720;47.738;7.998;2023-11-21T12:30:26;10.70;99.90
1453;DHT22;720;47.738;7.998;2023-11-21T12:32:57;10.60;99.90
1453;DHT22;720;47.738;7.998;2023-11-21T12:35:33;10.40;99.90
1453;DHT22;720;47.738;7.998;2023-11-21T12:38:03;10.40;99.90
1453;DHT22;720;47.738;7.998;2023-11-21T12:40:30;10.40;99.90
1453;DHT22;720;47.738;7.998;2023-11-21T12:42:57;10.30;99.90
1453;DHT22;720;47.738;7.998;2023-11-21T12:45:26;10.20;99.90
1453;DHT22;720;47.738;7.998;2023-11-21T12:48:02;10.10;99.90
1453;DHT22;720;47.738;7.998;2023-11-21T12:50:33;10.20;99.90
1453;DHT22;720;47.738;7.998;2023-11-21T12:53:05;10.30;99.90
1453;DHT22;720;47.738;7.998;2023-11-21T12:55:34;10.40;99.90
1453;DHT22;720;47.738;7.998;2023-11-21T12:58:05;10.30;99.90
1453;DHT22;720;47.738;7.998;2023-11-21T13:00:35;10.20;99.90
1453;DHT22;720;47.738;7.998;2023-11-21T13:03:05;10.10;99.90
1453;DHT22;720;47.738;7.998;2023-11-21T13:05:38;10.30;99.90
1453;DHT22;720;47.738;7.998;2023-11-21T13:08:05;10.50;99.90
1453;DHT22;720;47.738;7.998;2023-11-21T13:10:39;10.60;99.90
1453;DHT22;720;47.738;7.998;2023-11-21T13:13:07;10.70;99.90
1453;DHT22;720;47.738;7.998;2023-11-21T13:15:46;10.80;99.90
1453;DHT22;720;47.738;7.998;2023-11-21T13:18:12;11.00;99.90
1453;DHT22;720;47.738;7.998;2023-11-21T13:20:39;11.00;99.90
1453;DHT22;720;47.738;7.998;2023-11-21T13:23:08;11.00;99.90
1453;DHT22;720;47.738;7.998;2023-11-21T13:25:34;11.00;99.90
1453;DHT22;720;47.738;7.998;2023-11-21T13:28:00;11.00;99.90
1453;DHT22;720;47.738;7.998;2023-11-21T13:30:26;11.00;99.90
1453;DHT22;720;47.738;7.998;2023-11-21T13:32:56;10.90;99.90
1453;DHT22;720;47.738;7.998;2023-11-21T13:35:28;10.80;99.90
1453;DHT22;720;47.738;7.998;2023-11-21T13:38:05;10.90;99.90
1453;DHT22;720;47.738;7.998;2023-11-21T13:40:32;10.60;99.90
1453;DHT22;720;47.738;7.998;2023-11-21T13:43:00;10.40;99.90
1453;DHT22;720;47.738;7.998;2023-11-21T13:45:29;10.10;99.90
1453;DHT22;720;47.738;7.998;2023-11-21T13:47:56;10.10;99.90
1453;DHT22;720;47.738;7.998;2023-11-21T13:50:23;10.10;99.90
1453;DHT22;720;47.738;7.998;2023-11-21T13:52:52;10.10;99.90
1453;DHT22;720;47.738;7.998;2023-11-21T13:55:19;10.00;99.90
1453;DHT22;720;47.738;7.998;2023-11-21T13:57:47;9.90;99.90
1453;DHT22;720;47.738;7.998;2023-11-21T14:00:18;9.90;99.90
1453;DHT22;720;47.738;7.998;2023-11-21T14:03:16;9.90;99.90
1453;DHT22;720;47.738;7.998;2023-11-21T14:05:46;9.80;99.90
1453;DHT22;720;47.738;7.998;2023-11-21T14:08:13;9.80;99.90
1453;DHT22;720;47.738;7.998;2023-11-21T14:10:42;9.90;99.90
1453;DHT22;720;47.738;7.998;2023-11-21T14:13:18;9.80;99.90
1453;DHT22;720;47.738;7.998;2023-11-21T14:15:45;9.70;99.90
1453;DHT22;720;47.738;7.998;2023-11-21T14:18:12;9.70;99.90
1453;DHT22;720;47.738;7.998;2023-11-21T14:20:45;9.60;99.90
1453;DHT22;720;47.738;7.998;2023-11-21T14:23:11;9.70;99.90
1453;DHT22;720;47.738;7.998;2023-11-21T14:25:37;9.60;99.90
1453;DHT22;720;47.738;7.998;2023-11-21T14:28:05;9.70;99.90
1453;DHT22;720;47.738;7.998;2023-11-21T14:30:32;9.60;99.90
1453;DHT22;720;47.738;7.998;2023-11-21T14:32:59;9.60;99.90
1453;DHT22;720;47.738;7.998;2023-11-21T14:35:25;9.40;99.90
1453;DHT22;720;47.738;7.998;2023-11-21T14:37:52;9.50;99.90
1453;DHT22;720;47.738;7.998;2023-11-21T14:40:18;9.60;99.90
1453;DHT22;720;47.738;7.998;2023-11-21T14:42:50;9.90;99.90
1453;DHT22;720;47.738;7.998;2023-11-21T14:45:18;9.70;99.90
1453;DHT22;720;47.738;7.998;2023-11-21T14:47:46;9.70;99.90
1453;DHT22;720;47.738;7.998;2023-11-21T14:50:23;9.50;99.90
1453;DHT22;720;47.738;7.998;2023-11-21T14:53:08;9.30;99.90
1453;DHT22;720;47.738;7.998;2023-11-21T14:55:35;9.20;99.90
1453;DHT22;720;47.738;7.998;2023-11-21T14:58:22;9.40;99.90
1453;DHT22;720;47.738;7.998;2023-11-21T15:00:58;9.20;99.90
1453;DHT22;720;47.738;7.998;2023-11-21T15:03:28;9.20;99.90
1453;DHT22;720;47.738;7.998;2023-11-21T15:05:57;9.20;99.90
1453;DHT22;720;47.738;7.998;2023-11-21T15:08:25;9.10;99.90
1453;DHT22;720;47.738;7.998;2023-11-21T15:10:58;9.00;99.90
1453;DHT22;720;47.738;7.998;2023-11-21T15:13:24;9.00;99.90
1453;DHT22;720;47.738;7.998;2023-11-21T15:15:51;8.80;99.90
1453;DHT22;720;47.738;7.998;2023-11-21T15:18:20;8.70;99.90
1453;DHT22;720;47.738;7.998;2023-11-21T15:20:46;8.70;99.90
1453;DHT22;720;47.738;7.998;2023-11-21T15:23:12;8.80;99.90
1453;DHT22;720;47.738;7.998;2023-11-21T15:25:43;8.80;99.90
1453;DHT22;720;47.738;7.998;2023-11-21T15:28:08;8.70;99.90
1453;DHT22;720;47.738;7.998;2023-11-21T15:30:34;8.70;99.90
1453;DHT22;720;47.738;7.998;2023-11-21T15:33:00;9.20;99.90
1453;DHT22;720;47.738;7.998;2023-11-21T15:35:28;9.70;99.90
1453;DHT22;720;47.738;7.998;2023-11-21T15:37:54;10.20;99.90
1453;DHT22;720;47.738;7.998;2023-11-21T15:40:24;10.50;99.90
1453;DHT22;720;47.738;7.998;2023-11-21T15:42:50;10.50;99.90
1453;DHT22;720;47.738;7.998;2023-11-21T15:45:16;10.60;99.90
1453;DHT22;720;47.738;7.998;2023-11-21T15:47:44;10.60;99.90
1453;DHT22;720;47.738;7.998;2023-11-21T15:50:10;10.70;99.90
1453;DHT22;720;47.738;7.998;2023-11-21T15:52:36;10.80;99.90
1453;DHT22;720;47.738;7.998;2023-11-21T15:55:03;10.70;99.90
1453;DHT22;720;47.738;7.998;2023-11-21T15:57:29;10.70;99.90
1453;DHT22;720;47.738;7.998;2023-11-21T15:59:54;10.80;99.90
1453;DHT22;720;47.738;7.998;2023-11-21T16:02:20;11.00;99.90
1453;DHT22;720;47.738;7.998;2023-11-21T16:04:46;11.00;99.90
1453;DHT22;720;47.738;7.998;2023-11-21T16:07:11;10.80;99.90
1453;DHT22;720;47.738;7.998;2023-11-21T16:09:37;10.90;99.90
1453;DHT22;720;47.738;7.998;2023-11-21T16:12:05;10.90;99.90
1453;DHT22;720;47.738;7.998;2023-11-21T16:14:36;10.90;99.90
1453;DHT22;720;47.738;7.998;2023-11-21T16:17:07;10.80;99.90
1453;DHT22;720;47.738;7.998;2023-11-21T16:19:33;10.70;99.90
1453;DHT22;720;47.738;7.998;2023-11-21T16:22:00;10.80;99.90
1453;DHT22;720;47.738;7.998;2023-11-21T16:24:26;10.80;99.90
1453;DHT22;720;47.738;7.998;2023-11-21T16:26:56;10.90;99.90
1453;DHT22;720;47.738;7.998;2023-11-21T16:29:22;10.80;99.90
1453;DHT22;720;47.738;7.998;2023-11-21T16:31:48;10.70;99.90
1453;DHT22;720;47.738;7.998;2023-11-21T16:34:19;10.90;99.90
1453;DHT22;720;47.738;7.998;2023-11-21T16:36:45;10.90;99.90
1453;DHT22;720;47.738;7.998;2023-11-21T16:39:12;10.80;99.90
1453;DHT22;720;47.738;7.998;2023-11-21T16:41:38;10.80;99.90